Terminal Aerodrome Forecast
Issued by NWS

Home | Current Version | Previous Version | Text Only | Print | Product List | Glossary On
Versions: 1 2 3 4 5 6 7 8 9 10 11 12 13 14 15 16 17 18 19
000
FTUS46 KMTR 251727
TAFSTS
TAF
KSTS 251727Z 2518/2618 30004KT P6SM FEW010 SCT030
     FM252100 25008KT P6SM SCT050
     FM260400 VRB04KT P6SM BKN100
     FM260800 VRB04KT 4SM BR BKN030 OVC100
     FM261600 VRB03KT 2SM BR BKN030=

USA.gov is the U.S. government's official web portal to all federal, state and local government web resources and services.